Terminal Aerodrome Forecast
Issued by NWS

Home | Current Version | Previous Version | Graphics & Text | Print | Product List | Glossary On
Versions: 1 2 3 4 5 6 7 8 9 10 11 12 13 14 15 16 17 18 19 20 21 22 23 24 25 26
000
FTUS43 KLSX 190500
TAFSUS
TAF
KSUS 190523Z 1906/2006 VRB03KT 5SM BR OVC015
     FM190800 VRB03KT 3SM BR BKN008 OVC015
     FM191000 00000KT 1SM BR OVC003
     FM191700 VRB03KT 5SM BR OVC010
     FM192200 11004KT P6SM OVC015=

USA.gov is the U.S. government's official web portal to all federal, state and local government web resources and services.